Oshoro Maru — JDVA — position and weather

sailwx.info

Track history (hours):
 
Tides and Currents Weather Stations Pressure Air Temp Water Temp Dewpoint Dewpoint Depression Visibility Wind Speed Wind Dir Waves Ship Positions

Oceanographic research ship Oshoro Maru (Japan)

Detailed information on ship capabilities available from University of Delaware's Ocean Information Center.

Last reported at 2019-Jan-31 07:32 UTC. Time now 2019-Apr-21 22:23 UTC.
Position N 35°07' E 139°43'.
Warning: this ship's position is months out of date.

Length 73 m; beam 13 m; draft 5 m.

Type: Other ship. MMSI: 431477000.

Date/timePositionNaut miles runAvg speedWind from/ knotsBaromVisibWave heightAir tempDewpointWater temp
2019-Jan-31 07:32N 35°07' E 139°43'0 9.7
2019-Jan-31 07:30N 35°07' E 139°44'510.1
2019-Jan-31 07:00N 35°12' E 139°46'611.3
2019-Jan-31 06:30N 35°17' E 139°44'611.7
2019-Jan-31 06:01N 35°23' E 139°42'611.6
2019-Jan-31 05:30N 35°27' E 139°47'711.9
2019-Jan-31 04:56N 35°31' E 139°54'11 0.3
2019-Jan-29 10:10N 35°36' E 140°07'0 0.0
2019-Jan-28 10:09N 35°36' E 140°07'0 0.0
2019-Jan-28 06:15N 35°36' E 140°07'0 0.0
2019-Jan-28 06:00N 35°36' E 140°07'1 0.3
2019-Jan-28 03:55N 35°35' E 140°06'5 0.1
2019-Jan-26 02:12N 35°35' E 140°00'0 0.0
2019-Jan-25 13:19N 35°35' E 140°00'  
2019-Jan-22 03:45N 35°35' E 140°02'2 6.4
2019-Jan-22 03:24N 35°34' E 139°60'1 0.2
2019-Jan-22 00:23N 35°34' E 139°59'0 0.1
2019-Jan-21 19:33N 35°33' E 139°59'111.3
2019-Jan-21 19:30N 35°33' E 139°58'612.1
2019-Jan-21 19:01N 35°29' E 139°53'612.4
2019-Jan-21 18:30N 35°25' E 139°47'612.6
2019-Jan-21 18:01N 35°19' E 139°44'612.5
2019-Jan-21 17:30N 35°13' E 139°47'712.3
2019-Jan-21 16:57N 35°07' E 139°46'  
Track history (hours):
 
Tides and Currents Weather Stations Pressure Air Temp Water Temp Dewpoint Dewpoint Depression Visibility Wind Speed Wind Dir Waves Ship Positions

Oceanographic research ship Oshoro Maru (Japan)

Detailed information on ship capabilities available from University of Delaware's Ocean Information Center.

Last reported at 2019-Jan-31 07:32 UTC. Time now 2019-Apr-21 22:23 UTC.
Position N 35°07' E 139°43'.
Warning: this ship's position is months out of date.

Length 73 m; beam 13 m; draft 5 m.

Type: Other ship. MMSI: 431477000.

Date/timePositionNaut miles runAvg speedWind from/ knotsBaromVisibWave heightAir tempDewpointWater temp
2019-Jan-31 07:32N 35°07' E 139°43'0 9.7
2019-Jan-31 07:30N 35°07' E 139°44'510.1
2019-Jan-31 07:00N 35°12' E 139°46'611.3
2019-Jan-31 06:30N 35°17' E 139°44'611.7
2019-Jan-31 06:01N 35°23' E 139°42'611.6
2019-Jan-31 05:30N 35°27' E 139°47'711.9
2019-Jan-31 04:56N 35°31' E 139°54'11 0.3
2019-Jan-29 10:10N 35°36' E 140°07'0 0.0
2019-Jan-28 10:09N 35°36' E 140°07'0 0.0
2019-Jan-28 06:15N 35°36' E 140°07'0 0.0
2019-Jan-28 06:00N 35°36' E 140°07'1 0.3
2019-Jan-28 03:55N 35°35' E 140°06'5 0.1
2019-Jan-26 02:12N 35°35' E 140°00'0 0.0
2019-Jan-25 13:19N 35°35' E 140°00'  
2019-Jan-22 03:45N 35°35' E 140°02'2 6.4
2019-Jan-22 03:24N 35°34' E 139°60'1 0.2
2019-Jan-22 00:23N 35°34' E 139°59'0 0.1
2019-Jan-21 19:33N 35°33' E 139°59'111.3
2019-Jan-21 19:30N 35°33' E 139°58'612.1
2019-Jan-21 19:01N 35°29' E 139°53'612.4
2019-Jan-21 18:30N 35°25' E 139°47'612.6
2019-Jan-21 18:01N 35°19' E 139°44'612.5
2019-Jan-21 17:30N 35°13' E 139°47'712.3
2019-Jan-21 16:57N 35°07' E 139°46'  

Dump ship's entire track history